sensor_id;sensor_type;location;lat;lon;timestamp;temperature;humidity
43679;DHT22;29279;50.858;4.392;2023-03-14T00:01:51;11.40;99.90
43679;DHT22;29279;50.858;4.392;2023-03-14T00:04:17;11.40;99.90
43679;DHT22;29279;50.858;4.392;2023-03-14T00:06:42;11.30;99.90
43679;DHT22;29279;50.858;4.392;2023-03-14T00:09:08;11.10;99.90
43679;DHT22;29279;50.858;4.392;2023-03-14T00:11:37;11.10;99.90
43679;DHT22;29279;50.858;4.392;2023-03-14T00:14:02;11.00;99.90
43679;DHT22;29279;50.858;4.392;2023-03-14T00:16:28;10.90;99.90
43679;DHT22;29279;50.858;4.392;2023-03-14T00:18:53;11.00;99.90
43679;DHT22;29279;50.858;4.392;2023-03-14T00:21:19;11.00;99.90
43679;DHT22;29279;50.858;4.392;2023-03-14T00:23:45;11.00;99.90
43679;DHT22;29279;50.858;4.392;2023-03-14T00:26:19;11.10;99.90
43679;DHT22;29279;50.858;4.392;2023-03-14T00:28:45;11.10;99.90
43679;DHT22;29279;50.858;4.392;2023-03-14T00:31:13;11.10;99.90
43679;DHT22;29279;50.858;4.392;2023-03-14T00:33:39;11.10;99.90
43679;DHT22;29279;50.858;4.392;2023-03-14T00:36:11;11.10;99.90
43679;DHT22;29279;50.858;4.392;2023-03-14T00:38:38;11.10;99.90
43679;DHT22;29279;50.858;4.392;2023-03-14T00:41:10;11.00;99.90
43679;DHT22;29279;50.858;4.392;2023-03-14T00:43:36;11.10;99.90
43679;DHT22;29279;50.858;4.392;2023-03-14T00:46:03;11.10;99.90
43679;DHT22;29279;50.858;4.392;2023-03-14T00:48:29;11.20;99.90
43679;DHT22;29279;50.858;4.392;2023-03-14T00:50:55;11.20;99.90
43679;DHT22;29279;50.858;4.392;2023-03-14T00:53:20;11.20;99.90
43679;DHT22;29279;50.858;4.392;2023-03-14T00:55:46;11.20;99.90
43679;DHT22;29279;50.858;4.392;2023-03-14T00:58:13;11.20;99.90
43679;DHT22;29279;50.858;4.392;2023-03-14T01:00:40;11.10;99.90
43679;DHT22;29279;50.858;4.392;2023-03-14T01:03:06;11.10;99.90
43679;DHT22;29279;50.858;4.392;2023-03-14T01:05:32;11.10;99.90
43679;DHT22;29279;50.858;4.392;2023-03-14T01:07:58;11.30;99.90
43679;DHT22;29279;50.858;4.392;2023-03-14T01:10:24;11.30;99.90
43679;DHT22;29279;50.858;4.392;2023-03-14T01:12:50;11.20;99.90
43679;DHT22;29279;50.858;4.392;2023-03-14T01:15:16;11.30;99.90
43679;DHT22;29279;50.858;4.392;2023-03-14T01:17:42;11.20;99.90
43679;DHT22;29279;50.858;4.392;2023-03-14T01:20:11;11.20;99.90
43679;DHT22;29279;50.858;4.392;2023-03-14T01:22:38;11.30;99.90
43679;DHT22;29279;50.858;4.392;2023-03-14T01:25:11;11.20;99.90
43679;DHT22;29279;50.858;4.392;2023-03-14T01:27:37;11.10;99.90
43679;DHT22;29279;50.858;4.392;2023-03-14T01:30:04;11.10;99.90
43679;DHT22;29279;50.858;4.392;2023-03-14T01:32:30;11.10;99.90
43679;DHT22;29279;50.858;4.392;2023-03-14T01:34:55;11.00;99.90
43679;DHT22;29279;50.858;4.392;2023-03-14T01:37:21;11.00;99.90
43679;DHT22;29279;50.858;4.392;2023-03-14T01:39:47;11.00;99.90
43679;DHT22;29279;50.858;4.392;2023-03-14T01:42:13;11.00;99.90
43679;DHT22;29279;50.858;4.392;2023-03-14T01:44:56;10.90;99.90
43679;DHT22;29279;50.858;4.392;2023-03-14T01:47:23;10.90;99.90
43679;DHT22;29279;50.858;4.392;2023-03-14T01:50:04;10.90;99.90
43679;DHT22;29279;50.858;4.392;2023-03-14T01:52:44;11.00;99.90
43679;DHT22;29279;50.858;4.392;2023-03-14T01:55:21;11.00;99.90
43679;DHT22;29279;50.858;4.392;2023-03-14T01:57:59;11.00;99.90
43679;DHT22;29279;50.858;4.392;2023-03-14T02:00:26;10.90;99.90
43679;DHT22;29279;50.858;4.392;2023-03-14T02:02:56;10.90;99.90
43679;DHT22;29279;50.858;4.392;2023-03-14T02:05:28;10.90;99.90
43679;DHT22;29279;50.858;4.392;2023-03-14T02:07:59;10.70;99.90
43679;DHT22;29279;50.858;4.392;2023-03-14T02:10:31;10.60;99.90
43679;DHT22;29279;50.858;4.392;2023-03-14T02:12:59;10.50;99.90
43679;DHT22;29279;50.858;4.392;2023-03-14T02:15:26;10.20;99.90
43679;DHT22;29279;50.858;4.392;2023-03-14T02:17:52;10.30;99.90
43679;DHT22;29279;50.858;4.392;2023-03-14T02:23:08;10.10;99.90
43679;DHT22;29279;50.858;4.392;2023-03-14T02:28:09;10.20;99.90
43679;DHT22;29279;50.858;4.392;2023-03-14T02:30:35;10.20;99.90
43679;DHT22;29279;50.858;4.392;2023-03-14T02:33:05;10.30;99.90
43679;DHT22;29279;50.858;4.392;2023-03-14T02:36:01;10.40;99.90
43679;DHT22;29279;50.858;4.392;2023-03-14T02:38:40;10.30;99.90
43679;DHT22;29279;50.858;4.392;2023-03-14T02:41:07;10.30;99.90
43679;DHT22;29279;50.858;4.392;2023-03-14T02:43:33;10.30;99.90
43679;DHT22;29279;50.858;4.392;2023-03-14T02:46:00;10.30;99.90
43679;DHT22;29279;50.858;4.392;2023-03-14T02:48:29;10.40;99.90
43679;DHT22;29279;50.858;4.392;2023-03-14T02:50:58;10.30;99.90
43679;DHT22;29279;50.858;4.392;2023-03-14T02:53:32;10.20;99.90
43679;DHT22;29279;50.858;4.392;2023-03-14T02:55:59;10.20;99.90
43679;DHT22;29279;50.858;4.392;2023-03-14T02:58:26;10.30;99.90
43679;DHT22;29279;50.858;4.392;2023-03-14T03:00:52;10.30;99.90
43679;DHT22;29279;50.858;4.392;2023-03-14T03:03:18;10.40;99.90
43679;DHT22;29279;50.858;4.392;2023-03-14T03:05:51;10.50;99.90
43679;DHT22;29279;50.858;4.392;2023-03-14T03:08:18;10.50;99.90
43679;DHT22;29279;50.858;4.392;2023-03-14T03:10:44;10.40;99.90
43679;DHT22;29279;50.858;4.392;2023-03-14T03:13:10;10.30;99.90
43679;DHT22;29279;50.858;4.392;2023-03-14T03:15:35;10.30;99.90
43679;DHT22;29279;50.858;4.392;2023-03-14T03:18:01;10.30;99.90
43679;DHT22;29279;50.858;4.392;2023-03-14T03:20:27;10.30;99.90
43679;DHT22;29279;50.858;4.392;2023-03-14T03:22:52;10.30;99.90
43679;DHT22;29279;50.858;4.392;2023-03-14T03:25:19;10.20;99.90
43679;DHT22;29279;50.858;4.392;2023-03-14T03:27:45;10.30;99.90
43679;DHT22;29279;50.858;4.392;2023-03-14T03:30:11;10.30;99.90
43679;DHT22;29279;50.858;4.392;2023-03-14T03:32:37;10.20;99.90
43679;DHT22;29279;50.858;4.392;2023-03-14T03:35:04;10.30;99.90
43679;DHT22;29279;50.858;4.392;2023-03-14T03:37:31;10.50;99.90
43679;DHT22;29279;50.858;4.392;2023-03-14T03:39:56;10.50;99.90
43679;DHT22;29279;50.858;4.392;2023-03-14T03:42:22;10.40;99.90
43679;DHT22;29279;50.858;4.392;2023-03-14T03:44:48;10.30;99.90
43679;DHT22;29279;50.858;4.392;2023-03-14T03:47:15;10.20;99.90
43679;DHT22;29279;50.858;4.392;2023-03-14T03:49:41;10.30;99.90
43679;DHT22;29279;50.858;4.392;2023-03-14T03:52:06;10.30;99.90
43679;DHT22;29279;50.858;4.392;2023-03-14T03:54:32;10.30;99.90
43679;DHT22;29279;50.858;4.392;2023-03-14T03:56:58;10.30;99.90
43679;DHT22;29279;50.858;4.392;2023-03-14T03:59:23;10.30;99.90
43679;DHT22;29279;50.858;4.392;2023-03-14T04:01:49;10.40;99.90
43679;DHT22;29279;50.858;4.392;2023-03-14T04:04:15;10.40;99.90
43679;DHT22;29279;50.858;4.392;2023-03-14T04:06:40;10.40;99.90
43679;DHT22;29279;50.858;4.392;2023-03-14T04:09:10;10.40;99.90
43679;DHT22;29279;50.858;4.392;2023-03-14T04:11:36;10.40;99.90
43679;DHT22;29279;50.858;4.392;2023-03-14T04:14:03;10.40;99.90
43679;DHT22;29279;50.858;4.392;2023-03-14T04:16:28;10.40;99.90
43679;DHT22;29279;50.858;4.392;2023-03-14T04:18:57;10.40;99.90
43679;DHT22;29279;50.858;4.392;2023-03-14T04:21:22;10.40;99.90
43679;DHT22;29279;50.858;4.392;2023-03-14T04:23:48;10.40;99.90
43679;DHT22;29279;50.858;4.392;2023-03-14T04:26:14;10.40;99.90
43679;DHT22;29279;50.858;4.392;2023-03-14T04:28:40;10.40;99.90
43679;DHT22;29279;50.858;4.392;2023-03-14T04:31:07;10.40;99.90
43679;DHT22;29279;50.858;4.392;2023-03-14T04:33:34;10.40;99.90
43679;DHT22;29279;50.858;4.392;2023-03-14T04:35:59;10.40;99.90
43679;DHT22;29279;50.858;4.392;2023-03-14T04:38:25;10.40;99.90
43679;DHT22;29279;50.858;4.392;2023-03-14T04:40:51;10.40;99.90
43679;DHT22;29279;50.858;4.392;2023-03-14T04:43:17;10.40;99.90
43679;DHT22;29279;50.858;4.392;2023-03-14T04:45:42;10.50;99.90
43679;DHT22;29279;50.858;4.392;2023-03-14T04:48:08;10.50;99.90
43679;DHT22;29279;50.858;4.392;2023-03-14T04:50:34;10.50;99.90
43679;DHT22;29279;50.858;4.392;2023-03-14T04:53:00;10.50;99.90
43679;DHT22;29279;50.858;4.392;2023-03-14T04:55:25;10.60;99.90
43679;DHT22;29279;50.858;4.392;2023-03-14T04:57:51;10.60;99.90
43679;DHT22;29279;50.858;4.392;2023-03-14T05:00:17;10.60;99.90
43679;DHT22;29279;50.858;4.392;2023-03-14T05:02:44;10.70;99.90
43679;DHT22;29279;50.858;4.392;2023-03-14T05:05:10;10.60;99.90
43679;DHT22;29279;50.858;4.392;2023-03-14T05:07:36;10.60;99.90
43679;DHT22;29279;50.858;4.392;2023-03-14T05:10:02;10.70;99.90
43679;DHT22;29279;50.858;4.392;2023-03-14T05:12:28;10.80;99.90
43679;DHT22;29279;50.858;4.392;2023-03-14T05:14:53;10.70;99.90
43679;DHT22;29279;50.858;4.392;2023-03-14T05:17:19;10.70;99.90
43679;DHT22;29279;50.858;4.392;2023-03-14T05:19:45;10.70;99.90
43679;DHT22;29279;50.858;4.392;2023-03-14T05:22:11;10.70;99.90
43679;DHT22;29279;50.858;4.392;2023-03-14T05:24:37;10.80;99.90
43679;DHT22;29279;50.858;4.392;2023-03-14T05:27:03;10.80;99.90
43679;DHT22;29279;50.858;4.392;2023-03-14T05:29:29;10.80;99.90
43679;DHT22;29279;50.858;4.392;2023-03-14T05:31:55;10.80;99.90
43679;DHT22;29279;50.858;4.392;2023-03-14T05:34:20;10.80;99.90
43679;DHT22;29279;50.858;4.392;2023-03-14T05:36:46;10.80;99.90
43679;DHT22;29279;50.858;4.392;2023-03-14T05:39:12;10.80;99.90
43679;DHT22;29279;50.858;4.392;2023-03-14T05:41:38;10.80;99.90
43679;DHT22;29279;50.858;4.392;2023-03-14T05:44:04;10.80;99.90
43679;DHT22;29279;50.858;4.392;2023-03-14T05:46:29;10.70;99.90
43679;DHT22;29279;50.858;4.392;2023-03-14T05:48:58;10.70;99.90
43679;DHT22;29279;50.858;4.392;2023-03-14T05:51:24;10.70;99.90
43679;DHT22;29279;50.858;4.392;2023-03-14T05:53:50;10.70;99.90
43679;DHT22;29279;50.858;4.392;2023-03-14T05:56:16;10.70;99.90
43679;DHT22;29279;50.858;4.392;2023-03-14T05:58:41;10.60;99.90
43679;DHT22;29279;50.858;4.392;2023-03-14T06:01:07;10.60;99.90
43679;DHT22;29279;50.858;4.392;2023-03-14T06:03:33;10.50;99.90
43679;DHT22;29279;50.858;4.392;2023-03-14T06:05:59;10.40;99.90
43679;DHT22;29279;50.858;4.392;2023-03-14T06:08:25;10.40;99.90
43679;DHT22;29279;50.858;4.392;2023-03-14T06:10:52;10.50;99.90
43679;DHT22;29279;50.858;4.392;2023-03-14T06:13:17;10.50;99.90
43679;DHT22;29279;50.858;4.392;2023-03-14T06:15:43;10.60;99.90
43679;DHT22;29279;50.858;4.392;2023-03-14T06:18:09;10.60;99.90
43679;DHT22;29279;50.858;4.392;2023-03-14T06:20:38;10.60;99.90
43679;DHT22;29279;50.858;4.392;2023-03-14T06:23:05;10.80;99.90
43679;DHT22;29279;50.858;4.392;2023-03-14T06:25:32;10.80;99.90
43679;DHT22;29279;50.858;4.392;2023-03-14T06:27:58;10.70;99.90
43679;DHT22;29279;50.858;4.392;2023-03-14T06:30:23;10.60;99.90
43679;DHT22;29279;50.858;4.392;2023-03-14T06:32:49;10.60;99.90
43679;DHT22;29279;50.858;4.392;2023-03-14T06:35:15;10.70;99.90
43679;DHT22;29279;50.858;4.392;2023-03-14T06:37:41;10.60;99.90
43679;DHT22;29279;50.858;4.392;2023-03-14T06:40:08;10.50;99.90
43679;DHT22;29279;50.858;4.392;2023-03-14T06:42:34;10.40;99.90
43679;DHT22;29279;50.858;4.392;2023-03-14T06:45:00;10.30;99.90
43679;DHT22;29279;50.858;4.392;2023-03-14T06:47:25;10.40;99.90
43679;DHT22;29279;50.858;4.392;2023-03-14T06:49:51;10.30;99.90
43679;DHT22;29279;50.858;4.392;2023-03-14T06:52:17;9.90;99.90
43679;DHT22;29279;50.858;4.392;2023-03-14T06:54:42;9.60;99.90
43679;DHT22;29279;50.858;4.392;2023-03-14T06:57:08;9.40;99.90
43679;DHT22;29279;50.858;4.392;2023-03-14T06:59:34;9.30;99.90
43679;DHT22;29279;50.858;4.392;2023-03-14T07:01:59;9.20;99.90
43679;DHT22;29279;50.858;4.392;2023-03-14T07:04:25;9.10;99.90
43679;DHT22;29279;50.858;4.392;2023-03-14T07:06:50;9.00;99.90
43679;DHT22;29279;50.858;4.392;2023-03-14T07:09:16;8.90;99.90
43679;DHT22;29279;50.858;4.392;2023-03-14T07:11:45;8.90;99.90
43679;DHT22;29279;50.858;4.392;2023-03-14T07:14:10;8.90;99.90
43679;DHT22;29279;50.858;4.392;2023-03-14T07:16:36;8.80;99.90
43679;DHT22;29279;50.858;4.392;2023-03-14T07:19:03;8.70;99.90
43679;DHT22;29279;50.858;4.392;2023-03-14T07:21:28;8.60;99.90
43679;DHT22;29279;50.858;4.392;2023-03-14T07:23:54;8.40;99.90
43679;DHT22;29279;50.858;4.392;2023-03-14T07:26:20;8.30;99.90
43679;DHT22;29279;50.858;4.392;2023-03-14T07:28:46;8.40;99.90
43679;DHT22;29279;50.858;4.392;2023-03-14T07:31:12;8.40;99.90
43679;DHT22;29279;50.858;4.392;2023-03-14T07:33:37;8.40;99.90
43679;DHT22;29279;50.858;4.392;2023-03-14T07:36:04;8.40;99.90
43679;DHT22;29279;50.858;4.392;2023-03-14T07:38:30;8.40;99.90
43679;DHT22;29279;50.858;4.392;2023-03-14T07:41:00;8.40;99.90
43679;DHT22;29279;50.858;4.392;2023-03-14T07:43:26;8.30;99.90
43679;DHT22;29279;50.858;4.392;2023-03-14T07:45:52;8.40;99.90
43679;DHT22;29279;50.858;4.392;2023-03-14T07:48:18;8.40;99.90
43679;DHT22;29279;50.858;4.392;2023-03-14T07:50:47;8.50;99.90
43679;DHT22;29279;50.858;4.392;2023-03-14T07:53:13;8.50;99.90
43679;DHT22;29279;50.858;4.392;2023-03-14T07:55:39;8.60;99.90
43679;DHT22;29279;50.858;4.392;2023-03-14T07:58:05;8.60;99.90
43679;DHT22;29279;50.858;4.392;2023-03-14T08:00:31;8.60;99.90
43679;DHT22;29279;50.858;4.392;2023-03-14T08:02:58;8.70;99.90
43679;DHT22;29279;50.858;4.392;2023-03-14T08:05:23;8.60;99.90
43679;DHT22;29279;50.858;4.392;2023-03-14T08:07:49;8.50;99.90
43679;DHT22;29279;50.858;4.392;2023-03-14T08:10:15;8.40;99.90
43679;DHT22;29279;50.858;4.392;2023-03-14T08:12:51;8.40;99.90
43679;DHT22;29279;50.858;4.392;2023-03-14T08:15:17;8.40;99.90
43679;DHT22;29279;50.858;4.392;2023-03-14T08:17:42;8.30;99.90
43679;DHT22;29279;50.858;4.392;2023-03-14T08:20:09;8.30;99.90
43679;DHT22;29279;50.858;4.392;2023-03-14T08:22:37;8.30;99.90
43679;DHT22;29279;50.858;4.392;2023-03-14T08:25:03;8.30;99.90
43679;DHT22;29279;50.858;4.392;2023-03-14T08:27:29;8.30;99.90
43679;DHT22;29279;50.858;4.392;2023-03-14T08:29:55;8.40;99.90
43679;DHT22;29279;50.858;4.392;2023-03-14T08:32:21;8.40;99.90
43679;DHT22;29279;50.858;4.392;2023-03-14T08:34:49;8.30;99.90
43679;DHT22;29279;50.858;4.392;2023-03-14T08:37:15;8.20;99.90
43679;DHT22;29279;50.858;4.392;2023-03-14T08:39:40;8.10;99.90
43679;DHT22;29279;50.858;4.392;2023-03-14T08:42:06;8.10;99.90
43679;DHT22;29279;50.858;4.392;2023-03-14T08:44:32;8.00;99.90
43679;DHT22;29279;50.858;4.392;2023-03-14T08:46:57;7.80;99.90
43679;DHT22;29279;50.858;4.392;2023-03-14T08:49:23;7.70;99.90
43679;DHT22;29279;50.858;4.392;2023-03-14T08:51:49;7.80;99.90
43679;DHT22;29279;50.858;4.392;2023-03-14T08:54:14;7.80;99.90
43679;DHT22;29279;50.858;4.392;2023-03-14T08:56:40;7.80;99.90
43679;DHT22;29279;50.858;4.392;2023-03-14T08:59:06;7.70;99.90
43679;DHT22;29279;50.858;4.392;2023-03-14T09:01:33;7.70;99.90
43679;DHT22;29279;50.858;4.392;2023-03-14T09:03:59;7.80;99.90
43679;DHT22;29279;50.858;4.392;2023-03-14T09:06:25;7.70;99.90
43679;DHT22;29279;50.858;4.392;2023-03-14T09:08:50;7.70;99.90
43679;DHT22;29279;50.858;4.392;2023-03-14T09:11:16;7.70;99.90
43679;DHT22;29279;50.858;4.392;2023-03-14T09:13:44;7.70;99.90
43679;DHT22;29279;50.858;4.392;2023-03-14T09:16:10;7.60;99.90
43679;DHT22;29279;50.858;4.392;2023-03-14T09:18:37;7.60;99.90
43679;DHT22;29279;50.858;4.392;2023-03-14T09:21:03;7.50;99.90
43679;DHT22;29279;50.858;4.392;2023-03-14T09:23:29;7.60;99.90
43679;DHT22;29279;50.858;4.392;2023-03-14T09:25:56;7.70;99.90
43679;DHT22;29279;50.858;4.392;2023-03-14T09:28:21;7.70;99.90
43679;DHT22;29279;50.858;4.392;2023-03-14T09:30:47;7.60;99.90
43679;DHT22;29279;50.858;4.392;2023-03-14T09:33:13;7.50;99.90
43679;DHT22;29279;50.858;4.392;2023-03-14T09:35:38;7.40;99.90
43679;DHT22;29279;50.858;4.392;2023-03-14T09:38:04;7.40;99.90
43679;DHT22;29279;50.858;4.392;2023-03-14T09:40:34;7.30;99.90
43679;DHT22;29279;50.858;4.392;2023-03-14T09:43:00;7.30;99.90
43679;DHT22;29279;50.858;4.392;2023-03-14T09:45:29;7.40;99.90
43679;DHT22;29279;50.858;4.392;2023-03-14T09:47:58;7.30;99.90
43679;DHT22;29279;50.858;4.392;2023-03-14T09:50:25;7.30;99.90
43679;DHT22;29279;50.858;4.392;2023-03-14T09:52:56;7.30;99.90
43679;DHT22;29279;50.858;4.392;2023-03-14T09:55:24;7.20;99.90
43679;DHT22;29279;50.858;4.392;2023-03-14T09:57:55;7.30;99.90
43679;DHT22;29279;50.858;4.392;2023-03-14T10:00:24;7.40;99.90
43679;DHT22;29279;50.858;4.392;2023-03-14T10:03:20;7.30;99.90
43679;DHT22;29279;50.858;4.392;2023-03-14T10:05:45;7.30;99.90
43679;DHT22;29279;50.858;4.392;2023-03-14T10:08:12;7.30;99.90
43679;DHT22;29279;50.858;4.392;2023-03-14T10:10:38;7.50;99.90
43679;DHT22;29279;50.858;4.392;2023-03-14T10:16:03;7.90;99.90
43679;DHT22;29279;50.858;4.392;2023-03-14T10:18:32;7.90;99.90
43679;DHT22;29279;50.858;4.392;2023-03-14T10:21:28;7.90;99.90
43679;DHT22;29279;50.858;4.392;2023-03-14T10:23:54;7.70;99.90
43679;DHT22;29279;50.858;4.392;2023-03-14T10:26:29;7.50;99.90
43679;DHT22;29279;50.858;4.392;2023-03-14T10:29:08;7.50;99.90
43679;DHT22;29279;50.858;4.392;2023-03-14T10:31:57;7.60;99.90
43679;DHT22;29279;50.858;4.392;2023-03-14T10:34:33;7.50;99.90
43679;DHT22;29279;50.858;4.392;2023-03-14T10:39:49;7.30;99.90
43679;DHT22;29279;50.858;4.392;2023-03-14T10:42:25;7.30;99.90
43679;DHT22;29279;50.858;4.392;2023-03-14T10:44:57;7.40;99.90
43679;DHT22;29279;50.858;4.392;2023-03-14T10:47:26;7.30;99.90
43679;DHT22;29279;50.858;4.392;2023-03-14T10:49:54;7.30;99.90
43679;DHT22;29279;50.858;4.392;2023-03-14T10:52:29;7.30;99.90
43679;DHT22;29279;50.858;4.392;2023-03-14T10:54:59;7.40;99.90
43679;DHT22;29279;50.858;4.392;2023-03-14T10:57:26;7.50;99.90
43679;DHT22;29279;50.858;4.392;2023-03-14T10:59:54;7.70;99.90
43679;DHT22;29279;50.858;4.392;2023-03-14T11:02:34;7.80;99.90
43679;DHT22;29279;50.858;4.392;2023-03-14T11:07:56;7.70;99.90
43679;DHT22;29279;50.858;4.392;2023-03-14T11:10:36;7.60;99.90
43679;DHT22;29279;50.858;4.392;2023-03-14T11:13:14;7.60;99.90
43679;DHT22;29279;50.858;4.392;2023-03-14T11:15:48;7.40;99.90
43679;DHT22;29279;50.858;4.392;2023-03-14T11:18:35;7.30;99.90
43679;DHT22;29279;50.858;4.392;2023-03-14T11:26:53;7.20;99.90
43679;DHT22;29279;50.858;4.392;2023-03-14T11:30:12;6.80;99.90
43679;DHT22;29279;50.858;4.392;2023-03-14T11:35:22;6.70;99.90
43679;DHT22;29279;50.858;4.392;2023-03-14T11:38:00;6.70;99.90
43679;DHT22;29279;50.858;4.392;2023-03-14T11:40:28;6.60;99.90
43679;DHT22;29279;50.858;4.392;2023-03-14T11:45:35;6.60;99.90
43679;DHT22;29279;50.858;4.392;2023-03-14T11:51:43;6.70;99.90
43679;DHT22;29279;50.858;4.392;2023-03-14T12:09:26;6.70;99.90
43679;DHT22;29279;50.858;4.392;2023-03-14T12:11:56;6.70;99.90
43679;DHT22;29279;50.858;4.392;2023-03-14T12:14:35;6.80;99.90
43679;DHT22;29279;50.858;4.392;2023-03-14T12:19:40;6.90;99.90
43679;DHT22;29279;50.858;4.392;2023-03-14T12:25:03;7.00;99.90
43679;DHT22;29279;50.858;4.392;2023-03-14T12:27:49;7.10;99.90
43679;DHT22;29279;50.858;4.392;2023-03-14T12:30:36;7.00;99.90
43679;DHT22;29279;50.858;4.392;2023-03-14T12:48:35;7.00;99.90
43679;DHT22;29279;50.858;4.392;2023-03-14T12:51:05;7.10;99.90
43679;DHT22;29279;50.858;4.392;2023-03-14T12:57:03;7.00;99.90
43679;DHT22;29279;50.858;4.392;2023-03-14T13:05:17;7.20;99.90
43679;DHT22;29279;50.858;4.392;2023-03-14T13:10:25;7.60;99.90
43679;DHT22;29279;50.858;4.392;2023-03-14T13:18:15;7.70;99.90
43679;DHT22;29279;50.858;4.392;2023-03-14T13:20:51;7.70;99.90
43679;DHT22;29279;50.858;4.392;2023-03-14T13:23:32;7.60;99.90
43679;DHT22;29279;50.858;4.392;2023-03-14T13:26:00;7.60;99.90
43679;DHT22;29279;50.858;4.392;2023-03-14T13:28:26;7.60;99.90
43679;DHT22;29279;50.858;4.392;2023-03-14T13:31:01;7.50;99.90
43679;DHT22;29279;50.858;4.392;2023-03-14T13:33:28;7.80;99.90
43679;DHT22;29279;50.858;4.392;2023-03-14T13:35:57;7.90;99.90
43679;DHT22;29279;50.858;4.392;2023-03-14T13:38:26;8.10;99.90
43679;DHT22;29279;50.858;4.392;2023-03-14T13:40:55;8.20;99.90
43679;DHT22;29279;50.858;4.392;2023-03-14T13:43:41;8.40;99.90
43679;DHT22;29279;50.858;4.392;2023-03-14T13:46:16;8.50;99.90
43679;DHT22;29279;50.858;4.392;2023-03-14T13:48:58;8.60;99.90
43679;DHT22;29279;50.858;4.392;2023-03-14T13:51:26;8.80;99.90
43679;DHT22;29279;50.858;4.392;2023-03-14T13:53:57;8.90;99.90
43679;DHT22;29279;50.858;4.392;2023-03-14T13:56:30;8.90;99.90
43679;DHT22;29279;50.858;4.392;2023-03-14T13:58:56;8.90;99.90
43679;DHT22;29279;50.858;4.392;2023-03-14T14:01:32;8.90;99.90
43679;DHT22;29279;50.858;4.392;2023-03-14T14:04:05;8.90;99.90
43679;DHT22;29279;50.858;4.392;2023-03-14T14:06:37;8.80;99.90
43679;DHT22;29279;50.858;4.392;2023-03-14T14:09:19;8.90;99.90
43679;DHT22;29279;50.858;4.392;2023-03-14T14:14:22;9.10;99.90
43679;DHT22;29279;50.858;4.392;2023-03-14T14:16:50;9.20;99.90
43679;DHT22;29279;50.858;4.392;2023-03-14T14:19:17;9.30;99.90
43679;DHT22;29279;50.858;4.392;2023-03-14T14:21:45;9.40;99.90
43679;DHT22;29279;50.858;4.392;2023-03-14T14:24:14;9.40;99.90
43679;DHT22;29279;50.858;4.392;2023-03-14T14:26:46;9.40;99.90
43679;DHT22;29279;50.858;4.392;2023-03-14T14:29:30;9.50;99.90
43679;DHT22;29279;50.858;4.392;2023-03-14T14:34:30;9.20;99.90
43679;DHT22;29279;50.858;4.392;2023-03-14T14:37:03;9.00;99.90
43679;DHT22;29279;50.858;4.392;2023-03-14T14:39:30;9.00;99.90
43679;DHT22;29279;50.858;4.392;2023-03-14T14:41:56;8.80;99.90
43679;DHT22;29279;50.858;4.392;2023-03-14T14:44:31;8.80;99.90
43679;DHT22;29279;50.858;4.392;2023-03-14T14:46:58;8.70;99.90
43679;DHT22;29279;50.858;4.392;2023-03-14T14:49:32;8.60;99.90
43679;DHT22;29279;50.858;4.392;2023-03-14T14:52:11;8.40;99.90
43679;DHT22;29279;50.858;4.392;2023-03-14T14:55:00;8.00;99.90
43679;DHT22;29279;50.858;4.392;2023-03-14T14:57:37;7.70;99.90
43679;DHT22;29279;50.858;4.392;2023-03-14T15:00:08;7.60;99.90
43679;DHT22;29279;50.858;4.392;2023-03-14T15:02:39;7.60;99.90
43679;DHT22;29279;50.858;4.392;2023-03-14T15:05:17;7.60;99.90
43679;DHT22;29279;50.858;4.392;2023-03-14T15:07:44;7.80;99.90
43679;DHT22;29279;50.858;4.392;2023-03-14T15:10:21;7.90;99.90
43679;DHT22;29279;50.858;4.392;2023-03-14T15:12:48;8.10;99.90
43679;DHT22;29279;50.858;4.392;2023-03-14T15:15:14;8.20;99.90
43679;DHT22;29279;50.858;4.392;2023-03-14T15:17:40;8.30;99.90
43679;DHT22;29279;50.858;4.392;2023-03-14T15:20:11;8.30;99.90
43679;DHT22;29279;50.858;4.392;2023-03-14T15:22:39;8.40;99.90
43679;DHT22;29279;50.858;4.392;2023-03-14T15:25:05;8.50;99.90
43679;DHT22;29279;50.858;4.392;2023-03-14T15:27:31;8.60;99.90
43679;DHT22;29279;50.858;4.392;2023-03-14T15:29:58;8.70;99.90
43679;DHT22;29279;50.858;4.392;2023-03-14T15:32:24;8.80;99.90
43679;DHT22;29279;50.858;4.392;2023-03-14T15:34:54;8.80;99.90
43679;DHT22;29279;50.858;4.392;2023-03-14T15:37:20;8.80;99.90
43679;DHT22;29279;50.858;4.392;2023-03-14T15:39:46;8.90;99.90
43679;DHT22;29279;50.858;4.392;2023-03-14T15:42:12;8.90;99.90
43679;DHT22;29279;50.858;4.392;2023-03-14T15:44:38;8.90;99.90
43679;DHT22;29279;50.858;4.392;2023-03-14T15:47:09;8.90;99.90
43679;DHT22;29279;50.858;4.392;2023-03-14T15:49:35;8.90;99.90
43679;DHT22;29279;50.858;4.392;2023-03-14T15:52:01;8.80;99.90
43679;DHT22;29279;50.858;4.392;2023-03-14T15:54:27;8.80;99.90
43679;DHT22;29279;50.858;4.392;2023-03-14T15:56:57;8.80;99.90
43679;DHT22;29279;50.858;4.392;2023-03-14T15:59:23;8.80;99.90
43679;DHT22;29279;50.858;4.392;2023-03-14T16:01:49;8.70;99.90
43679;DHT22;29279;50.858;4.392;2023-03-14T16:04:15;8.70;99.90
43679;DHT22;29279;50.858;4.392;2023-03-14T16:06:41;8.70;99.90
43679;DHT22;29279;50.858;4.392;2023-03-14T16:09:09;8.70;99.90
43679;DHT22;29279;50.858;4.392;2023-03-14T16:11:34;8.60;99.90
43679;DHT22;29279;50.858;4.392;2023-03-14T16:14:00;8.50;99.90
43679;DHT22;29279;50.858;4.392;2023-03-14T16:16:26;8.40;99.90
43679;DHT22;29279;50.858;4.392;2023-03-14T16:18:51;8.50;99.90
43679;DHT22;29279;50.858;4.392;2023-03-14T16:21:18;8.50;99.90
43679;DHT22;29279;50.858;4.392;2023-03-14T16:23:45;8.50;99.90
43679;DHT22;29279;50.858;4.392;2023-03-14T16:26:17;8.40;99.90
43679;DHT22;29279;50.858;4.392;2023-03-14T16:28:44;8.40;99.90
43679;DHT22;29279;50.858;4.392;2023-03-14T16:31:13;8.50;99.90
43679;DHT22;29279;50.858;4.392;2023-03-14T16:33:39;8.50;99.90
43679;DHT22;29279;50.858;4.392;2023-03-14T16:36:07;8.60;99.90
43679;DHT22;29279;50.858;4.392;2023-03-14T16:38:34;8.40;99.90
43679;DHT22;29279;50.858;4.392;2023-03-14T16:41:02;8.40;99.90
43679;DHT22;29279;50.858;4.392;2023-03-14T16:43:29;8.30;99.90
43679;DHT22;29279;50.858;4.392;2023-03-14T16:45:58;8.30;99.90
43679;DHT22;29279;50.858;4.392;2023-03-14T16:48:28;8.20;99.90
43679;DHT22;29279;50.858;4.392;2023-03-14T16:50:54;8.30;99.90
43679;DHT22;29279;50.858;4.392;2023-03-14T16:53:21;8.30;99.90
43679;DHT22;29279;50.858;4.392;2023-03-14T16:55:49;8.40;99.90
43679;DHT22;29279;50.858;4.392;2023-03-14T16:58:15;8.40;99.90
43679;DHT22;29279;50.858;4.392;2023-03-14T17:00:43;8.30;99.90
43679;DHT22;29279;50.858;4.392;2023-03-14T17:03:09;8.30;99.90
43679;DHT22;29279;50.858;4.392;2023-03-14T17:05:36;8.30;99.90
43679;DHT22;29279;50.858;4.392;2023-03-14T17:08:02;8.30;99.90
43679;DHT22;29279;50.858;4.392;2023-03-14T17:10:28;8.40;99.90
43679;DHT22;29279;50.858;4.392;2023-03-14T17:12:53;8.40;99.90
43679;DHT22;29279;50.858;4.392;2023-03-14T17:15:19;8.40;99.90